createdAt,value
2018-08-31T00:02:20.931Z,90.90
2018-08-31T00:05:06.415Z,91.00
2018-08-31T00:07:53.782Z,91.20
2018-08-31T00:12:37.990Z,91.00
2018-08-31T00:15:07.056Z,90.90
2018-08-31T00:17:36.870Z,90.60
2018-08-31T00:20:05.715Z,90.30
2018-08-31T00:22:34.433Z,90.20
2018-08-31T00:26:23.618Z,90.40
2018-08-31T00:29:48.238Z,90.50
2018-08-31T00:34:05.496Z,90.80
2018-08-31T00:39:53.483Z,91.10
2018-08-31T00:42:49.210Z,91.10
2018-08-31T00:45:33.696Z,91.10
2018-08-31T00:48:02.868Z,91.20
2018-08-31T00:50:31.975Z,91.10
2018-08-31T00:53:01.070Z,91.00
2018-08-31T00:55:29.847Z,91.00
2018-08-31T00:57:58.506Z,90.90
2018-08-31T01:00:27.209Z,91.10
2018-08-31T01:02:55.927Z,91.20
2018-08-31T01:05:24.665Z,91.30
2018-08-31T01:07:53.547Z,91.50
2018-08-31T01:10:23.398Z,91.50
2018-08-31T01:12:53.266Z,91.50
2018-08-31T01:15:21.853Z,91.60
2018-08-31T01:17:50.473Z,91.50
2018-08-31T01:20:19.236Z,91.30
2018-08-31T01:22:47.958Z,91.20
2018-08-31T01:25:16.615Z,91.20
2018-08-31T01:27:45.288Z,91.10
2018-08-31T01:30:13.884Z,91.00
2018-08-31T01:32:42.533Z,91.20
2018-08-31T01:35:11.205Z,90.40
2018-08-31T01:37:39.810Z,90.30
2018-08-31T01:40:08.541Z,90.50
2018-08-31T01:42:37.244Z,90.80
2018-08-31T01:45:06.086Z,91.00
2018-08-31T01:47:34.805Z,90.60
2018-08-31T01:50:03.578Z,90.30
2018-08-31T01:52:32.421Z,90.40
2018-08-31T01:55:01.161Z,90.30
2018-08-31T01:57:29.928Z,90.50
2018-08-31T01:59:58.713Z,90.50
2018-08-31T02:02:27.440Z,91.40
2018-08-31T02:04:56.228Z,90.60
2018-08-31T02:07:24.958Z,90.60
2018-08-31T02:09:53.758Z,90.60
2018-08-31T02:12:22.465Z,90.50
2018-08-31T02:14:51.408Z,90.40
2018-08-31T02:17:20.138Z,91.00
2018-08-31T02:19:48.938Z,91.50
2018-08-31T02:22:17.608Z,92.10
2018-08-31T02:24:46.238Z,92.30
2018-08-31T02:27:14.858Z,91.30
2018-08-31T02:29:43.528Z,90.80
2018-08-31T02:32:12.197Z,91.10
2018-08-31T02:34:40.796Z,91.90
2018-08-31T02:37:09.477Z,92.20
2018-08-31T02:39:38.171Z,91.90
2018-08-31T02:42:06.931Z,92.00
2018-08-31T02:44:35.659Z,92.00
2018-08-31T02:47:04.461Z,91.30
2018-08-31T02:49:33.206Z,91.20
2018-08-31T02:52:01.921Z,91.40
2018-08-31T02:54:30.677Z,90.90
2018-08-31T02:56:59.406Z,90.40
2018-08-31T02:59:28.069Z,89.60
2018-08-31T03:01:56.661Z,88.70
2018-08-31T03:04:25.384Z,88.60
2018-08-31T03:06:54.013Z,88.80
2018-08-31T03:09:22.658Z,89.10
2018-08-31T03:11:51.321Z,89.40
2018-08-31T03:14:19.933Z,89.70
2018-08-31T03:16:48.522Z,89.70
2018-08-31T03:19:17.153Z,89.80
2018-08-31T03:21:45.857Z,90.80
2018-08-31T03:24:14.614Z,91.00
2018-08-31T03:26:43.311Z,91.20
2018-08-31T03:29:12.071Z,91.50
2018-08-31T03:31:40.783Z,91.70
2018-08-31T03:34:09.543Z,91.40
2018-08-31T03:36:38.279Z,91.20
2018-08-31T03:39:09.336Z,91.70
2018-08-31T03:41:38.433Z,91.20
2018-08-31T03:44:07.133Z,91.70
2018-08-31T03:46:35.822Z,90.60
2018-08-31T03:49:04.573Z,91.70
2018-08-31T03:51:33.320Z,92.50
2018-08-31T03:54:02.155Z,92.60
2018-08-31T03:56:30.946Z,92.70
2018-08-31T03:58:59.725Z,92.70
2018-08-31T04:01:28.358Z,92.80
2018-08-31T04:03:56.985Z,92.90
2018-08-31T04:06:25.790Z,92.90
2018-08-31T04:08:54.380Z,92.90
2018-08-31T04:11:23.048Z,92.80
2018-08-31T04:13:51.801Z,92.80
2018-08-31T04:16:20.496Z,92.50
2018-08-31T04:18:49.222Z,92.30
2018-08-31T04:21:17.949Z,92.20
2018-08-31T04:23:46.635Z,92.10
2018-08-31T04:26:15.250Z,91.80
2018-08-31T04:28:43.880Z,91.70
2018-08-31T04:31:12.501Z,91.60
2018-08-31T04:33:41.178Z,91.60
2018-08-31T04:36:09.829Z,91.60
2018-08-31T04:38:38.529Z,91.60
2018-08-31T04:41:07.203Z,91.50
2018-08-31T04:43:35.969Z,91.20
2018-08-31T04:46:04.710Z,91.30
2018-08-31T04:48:33.478Z,90.90
2018-08-31T04:51:02.218Z,90.20
2018-08-31T04:53:31.800Z,90.60
2018-08-31T04:56:00.579Z,90.40
2018-08-31T04:58:29.196Z,90.40
2018-08-31T05:00:57.838Z,90.30
2018-08-31T05:03:26.569Z,90.50
2018-08-31T05:05:55.201Z,90.60
2018-08-31T05:08:23.831Z,90.70
2018-08-31T05:10:52.553Z,91.00
2018-08-31T05:13:21.348Z,91.10
2018-08-31T05:15:50.107Z,91.30
2018-08-31T05:18:18.896Z,91.10
2018-08-31T05:20:47.618Z,90.80
2018-08-31T05:23:16.378Z,90.90
2018-08-31T05:25:45.136Z,90.60
2018-08-31T05:28:13.962Z,91.10
2018-08-31T05:30:42.714Z,90.10
2018-08-31T05:33:12.126Z,89.80
2018-08-31T05:35:40.816Z,89.60
2018-08-31T05:38:09.416Z,89.40
2018-08-31T05:40:38.112Z,89.40
2018-08-31T05:43:06.828Z,89.60
2018-08-31T05:45:35.905Z,89.40
2018-08-31T05:48:04.652Z,89.40
2018-08-31T05:50:33.486Z,88.90
2018-08-31T05:53:02.250Z,88.90
2018-08-31T05:55:30.923Z,88.80
2018-08-31T05:57:59.576Z,88.50
2018-08-31T06:00:28.458Z,88.10
2018-08-31T06:02:57.109Z,87.80
2018-08-31T06:05:26.200Z,87.70
2018-08-31T06:07:55.014Z,87.70
2018-08-31T06:10:23.761Z,87.60
2018-08-31T06:12:52.521Z,87.30
2018-08-31T06:15:21.294Z,87.10
2018-08-31T06:17:50.036Z,86.10
2018-08-31T06:20:18.779Z,85.00
2018-08-31T06:22:47.553Z,84.10
2018-08-31T06:25:16.364Z,82.90
2018-08-31T06:27:45.251Z,82.70
2018-08-31T06:30:14.659Z,82.00
2018-08-31T06:32:43.340Z,82.60
2018-08-31T06:35:12.083Z,82.20
2018-08-31T06:37:40.936Z,82.20
2018-08-31T06:40:09.675Z,82.00
2018-08-31T06:42:38.467Z,81.10
2018-08-31T06:45:07.306Z,79.60
2018-08-31T06:47:36.042Z,78.40
2018-08-31T06:50:05.161Z,78.50
2018-08-31T06:52:33.979Z,77.10
2018-08-31T06:55:02.693Z,76.90
2018-08-31T06:57:31.457Z,77.40
2018-08-31T07:00:00.251Z,77.40
2018-08-31T07:02:29.025Z,78.60
2018-08-31T07:04:57.790Z,78.20
2018-08-31T07:07:26.475Z,79.30
2018-08-31T07:09:55.169Z,79.30
2018-08-31T07:12:23.939Z,79.00
2018-08-31T07:14:52.543Z,79.50
2018-08-31T07:17:21.222Z,79.40
2018-08-31T07:19:50.139Z,79.30
2018-08-31T07:22:19.011Z,79.10
2018-08-31T07:24:47.865Z,78.50
2018-08-31T07:27:16.525Z,78.00
2018-08-31T07:29:45.169Z,77.20
2018-08-31T07:32:14.002Z,77.60
2018-08-31T07:34:42.608Z,76.60
2018-08-31T07:37:11.316Z,76.30
2018-08-31T07:39:40.068Z,75.90
2018-08-31T07:42:08.759Z,74.10
2018-08-31T07:44:37.389Z,73.70
2018-08-31T07:47:06.098Z,72.20
2018-08-31T07:49:34.706Z,72.30
2018-08-31T07:52:03.331Z,71.00
2018-08-31T07:54:32.011Z,69.70
2018-08-31T07:57:00.623Z,70.80
2018-08-31T07:59:29.276Z,69.20
2018-08-31T08:01:58.004Z,68.50
2018-08-31T08:04:26.854Z,69.10
2018-08-31T08:06:55.539Z,67.10
2018-08-31T08:09:24.259Z,66.20
2018-08-31T08:11:53.005Z,66.40
2018-08-31T08:14:21.856Z,66.20
2018-08-31T08:16:50.664Z,66.30
2018-08-31T08:19:19.528Z,64.70
2018-08-31T08:21:48.373Z,64.70
2018-08-31T08:24:17.134Z,63.50
2018-08-31T08:26:45.784Z,64.20
2018-08-31T08:29:14.441Z,63.30
2018-08-31T08:31:43.056Z,62.20
2018-08-31T08:34:11.699Z,61.20
2018-08-31T08:36:40.495Z,60.70
2018-08-31T08:39:09.241Z,60.40
2018-08-31T08:41:38.009Z,58.40
2018-08-31T08:44:07.330Z,59.30
2018-08-31T08:46:35.962Z,60.10
2018-08-31T08:49:04.796Z,59.90
2018-08-31T08:51:34.335Z,58.50
2018-08-31T08:54:03.086Z,58.60
2018-08-31T08:56:32.876Z,61.00
2018-08-31T08:59:01.690Z,60.00
2018-08-31T09:01:30.419Z,60.50
2018-08-31T09:03:59.175Z,58.70
2018-08-31T09:06:27.873Z,57.80
2018-08-31T09:08:56.660Z,57.70
2018-08-31T09:11:25.373Z,59.50
2018-08-31T09:13:54.806Z,59.50
2018-08-31T09:16:23.626Z,58.00
2018-08-31T09:18:52.341Z,57.10
2018-08-31T09:21:21.104Z,58.30
2018-08-31T09:23:49.814Z,59.00
2018-08-31T09:26:18.679Z,60.00
2018-08-31T09:28:47.484Z,59.20
2018-08-31T09:31:17.500Z,60.00
2018-08-31T09:33:46.273Z,58.30
2018-08-31T09:36:15.076Z,58.10
2018-08-31T09:38:43.922Z,57.90
2018-08-31T09:41:12.791Z,56.40
2018-08-31T09:43:42.070Z,56.20
2018-08-31T09:46:10.751Z,56.00
2018-08-31T09:48:39.386Z,56.80
2018-08-31T09:51:07.998Z,55.30
2018-08-31T09:53:36.705Z,55.80
2018-08-31T09:56:05.580Z,51.70
2018-08-31T09:58:34.668Z,53.10
2018-08-31T10:01:09.100Z,52.80
2018-08-31T10:03:41.944Z,54.30
2018-08-31T10:06:10.755Z,55.10
2018-08-31T10:08:39.673Z,53.80
2018-08-31T10:11:08.426Z,52.40
2018-08-31T10:13:37.224Z,51.60
2018-08-31T10:16:06.198Z,48.60
2018-08-31T10:18:35.029Z,48.90
2018-08-31T10:21:03.763Z,50.20
2018-08-31T10:23:32.513Z,51.20
2018-08-31T10:26:01.271Z,50.50
2018-08-31T10:28:30.108Z,50.70
2018-08-31T10:30:58.953Z,51.20
2018-08-31T10:33:27.801Z,51.30
2018-08-31T10:35:56.531Z,51.50
2018-08-31T10:38:25.316Z,53.10
2018-08-31T10:40:54.131Z,50.50
2018-08-31T10:43:23.569Z,52.10
2018-08-31T10:45:52.428Z,52.20
2018-08-31T10:48:22.434Z,51.80
2018-08-31T10:50:51.298Z,51.70
2018-08-31T10:53:20.296Z,48.90
2018-08-31T10:55:49.053Z,48.30
2018-08-31T10:58:17.844Z,47.20
2018-08-31T11:00:46.623Z,48.40
2018-08-31T11:03:15.496Z,48.40
2018-08-31T11:05:44.323Z,47.20
2018-08-31T11:08:13.196Z,42.40
2018-08-31T11:10:41.983Z,38.70
2018-08-31T11:13:10.842Z,36.70
2018-08-31T11:15:39.551Z,35.80
2018-08-31T11:18:08.323Z,33.60
2018-08-31T11:20:37.106Z,32.00
2018-08-31T11:23:06.498Z,34.30
2018-08-31T11:25:35.403Z,32.30
2018-08-31T11:28:04.178Z,30.70
2018-08-31T11:30:33.851Z,29.90
2018-08-31T11:33:02.663Z,29.50
2018-08-31T11:35:31.402Z,30.00
2018-08-31T11:38:01.037Z,28.10
2018-08-31T11:40:29.773Z,27.20
2018-08-31T11:42:58.496Z,26.20
2018-08-31T11:45:27.268Z,24.90
2018-08-31T11:47:56.924Z,24.40
2018-08-31T11:50:26.183Z,21.90
2018-08-31T11:52:55.096Z,24.20
2018-08-31T11:55:23.964Z,26.60
2018-08-31T11:57:53.366Z,27.80
2018-08-31T12:00:22.141Z,26.40
2018-08-31T12:02:50.783Z,26.50
2018-08-31T12:05:20.416Z,25.70
2018-08-31T12:07:49.144Z,27.00
2018-08-31T12:10:18.199Z,29.20
2018-08-31T12:12:47.036Z,29.80
2018-08-31T12:15:16.239Z,27.30
2018-08-31T12:17:45.059Z,27.80
2018-08-31T12:20:13.949Z,29.90
2018-08-31T12:22:42.856Z,30.40
2018-08-31T12:25:11.586Z,30.10
2018-08-31T12:27:43.874Z,29.20
2018-08-31T12:30:13.170Z,29.40
2018-08-31T12:32:42.174Z,29.00
2018-08-31T12:35:11.216Z,28.90
2018-08-31T12:37:40.197Z,29.10
2018-08-31T12:40:10.052Z,28.80
2018-08-31T12:42:38.891Z,28.90
2018-08-31T12:45:07.841Z,29.90
2018-08-31T12:47:36.671Z,30.10
2018-08-31T12:50:05.383Z,31.50
2018-08-31T12:52:34.096Z,30.70
2018-08-31T12:55:02.991Z,31.20
2018-08-31T12:57:31.656Z,30.30
2018-08-31T13:00:01.156Z,29.50
2018-08-31T13:02:31.283Z,29.60
2018-08-31T13:05:00.811Z,28.90
2018-08-31T13:07:29.567Z,28.70
2018-08-31T13:09:58.316Z,29.60
2018-08-31T13:12:27.432Z,28.10
2018-08-31T13:14:56.292Z,28.10
2018-08-31T13:17:25.219Z,28.10
2018-08-31T13:19:54.040Z,27.10
2018-08-31T13:22:22.687Z,29.00
2018-08-31T13:24:51.556Z,32.50
2018-08-31T13:27:20.862Z,33.60
2018-08-31T13:29:49.607Z,34.00
2018-08-31T13:32:18.379Z,34.10
2018-08-31T13:34:47.099Z,35.50
2018-08-31T13:37:15.919Z,36.50
2018-08-31T13:39:44.669Z,36.20
2018-08-31T13:42:13.509Z,36.50
2018-08-31T13:44:42.290Z,37.00
2018-08-31T13:47:11.124Z,37.40
2018-08-31T13:49:39.976Z,36.20
2018-08-31T13:52:08.761Z,36.40
2018-08-31T13:54:38.039Z,36.50
2018-08-31T13:57:07.017Z,37.30
2018-08-31T13:59:35.740Z,35.70
2018-08-31T14:02:04.805Z,35.90
2018-08-31T14:04:33.723Z,35.90
2018-08-31T14:07:02.405Z,36.10
2018-08-31T14:09:31.152Z,36.40
2018-08-31T14:12:01.564Z,35.90
2018-08-31T14:14:30.234Z,36.80
2018-08-31T14:16:58.931Z,37.50
2018-08-31T14:19:27.591Z,39.10
2018-08-31T14:21:56.318Z,39.40
2018-08-31T14:24:25.054Z,39.70
2018-08-31T14:26:53.785Z,40.00
2018-08-31T14:29:23.273Z,39.80
2018-08-31T14:31:52.367Z,41.60
2018-08-31T14:34:21.131Z,42.50
2018-08-31T14:36:50.061Z,43.50
2018-08-31T14:39:18.866Z,45.10
2018-08-31T14:41:47.501Z,44.70
2018-08-31T14:44:16.199Z,45.00
2018-08-31T14:46:44.913Z,45.00
2018-08-31T14:49:14.186Z,45.40
2018-08-31T14:51:43.049Z,44.60
2018-08-31T14:54:11.817Z,45.60
2018-08-31T14:56:40.637Z,44.10
2018-08-31T14:59:09.384Z,44.00
2018-08-31T15:01:38.225Z,44.70
2018-08-31T15:04:09.783Z,44.50
2018-08-31T15:06:38.426Z,45.20
2018-08-31T15:09:09.058Z,44.40
2018-08-31T15:11:37.834Z,43.20
2018-08-31T15:14:06.591Z,42.90
2018-08-31T15:16:35.370Z,44.30
2018-08-31T15:19:04.311Z,45.70
2018-08-31T15:21:33.116Z,45.90
2018-08-31T15:24:01.854Z,46.00
2018-08-31T15:26:30.479Z,46.20
2018-08-31T15:28:59.278Z,45.50
2018-08-31T15:31:28.130Z,45.80
2018-08-31T15:33:56.765Z,45.70
2018-08-31T15:36:25.406Z,46.40
2018-08-31T15:38:54.166Z,46.40
2018-08-31T15:41:22.863Z,46.40
2018-08-31T15:43:51.708Z,46.40
2018-08-31T15:46:21.133Z,46.70
2018-08-31T15:48:50.036Z,46.80
2018-08-31T15:51:18.848Z,47.10
2018-08-31T15:53:47.596Z,47.80
2018-08-31T15:56:17.024Z,48.00
2018-08-31T15:58:45.871Z,48.00
2018-08-31T16:01:14.658Z,48.20
2018-08-31T16:03:43.386Z,48.50
2018-08-31T16:06:12.157Z,48.70
2018-08-31T16:08:40.879Z,49.80
2018-08-31T16:11:09.549Z,50.40
2018-08-31T16:13:38.361Z,51.80
2018-08-31T16:16:07.366Z,52.30
2018-08-31T16:18:36.300Z,52.90
2018-08-31T16:21:05.112Z,52.50
2018-08-31T16:23:33.963Z,52.50
2018-08-31T16:26:02.756Z,52.00
2018-08-31T16:28:31.506Z,52.50
2018-08-31T16:31:00.352Z,51.50
2018-08-31T16:33:29.088Z,50.90
2018-08-31T16:35:57.771Z,49.90
2018-08-31T16:38:26.441Z,48.70
2018-08-31T16:40:55.126Z,49.50
2018-08-31T16:43:23.911Z,49.80
2018-08-31T16:45:52.821Z,50.10
2018-08-31T16:48:21.567Z,50.00
2018-08-31T16:50:50.891Z,50.40
2018-08-31T16:53:19.641Z,50.80
2018-08-31T16:55:48.411Z,50.50
2018-08-31T16:58:17.269Z,50.50
2018-08-31T17:00:46.486Z,50.70
2018-08-31T17:03:15.287Z,51.10
2018-08-31T17:05:44.076Z,51.40
2018-08-31T17:08:12.754Z,51.50
2018-08-31T17:10:41.419Z,51.60
2018-08-31T17:13:10.168Z,51.60
2018-08-31T17:15:39.091Z,51.70
2018-08-31T17:18:07.863Z,51.80
2018-08-31T17:20:36.639Z,51.70
2018-08-31T17:23:05.463Z,51.90
2018-08-31T17:25:34.286Z,52.40
2018-08-31T17:28:08.732Z,52.70
2018-08-31T17:30:37.614Z,53.40
2018-08-31T17:33:12.133Z,54.20
2018-08-31T17:35:46.361Z,54.90
2018-08-31T17:38:15.077Z,55.20
2018-08-31T17:40:43.758Z,55.70
2018-08-31T17:43:12.554Z,55.70
2018-08-31T17:45:41.358Z,55.20
2018-08-31T17:48:10.111Z,55.60
2018-08-31T17:50:38.856Z,55.70
2018-08-31T17:53:07.571Z,56.00
2018-08-31T17:55:36.347Z,56.20
2018-08-31T17:58:05.961Z,56.50
2018-08-31T18:00:34.746Z,56.40
2018-08-31T18:03:03.548Z,57.10
2018-08-31T18:05:32.255Z,57.40
2018-08-31T18:08:00.998Z,57.80
2018-08-31T18:10:29.766Z,58.30
2018-08-31T18:12:58.481Z,58.90
2018-08-31T18:15:27.879Z,59.30
2018-08-31T18:17:56.788Z,60.30
2018-08-31T18:20:25.698Z,61.60
2018-08-31T18:22:54.563Z,62.00
2018-08-31T18:25:24.123Z,62.80
2018-08-31T18:27:52.943Z,63.40
2018-08-31T18:30:21.743Z,63.80
2018-08-31T18:32:51.263Z,64.00
2018-08-31T18:35:20.516Z,64.50
2018-08-31T18:37:49.331Z,64.70
2018-08-31T18:40:18.127Z,65.00
2018-08-31T18:42:47.095Z,65.00
2018-08-31T18:45:16.753Z,65.70
2018-08-31T18:47:45.446Z,65.70
2018-08-31T18:50:14.161Z,66.10
2018-08-31T18:52:42.972Z,66.30
2018-08-31T18:55:11.732Z,66.60
2018-08-31T18:57:40.402Z,67.10
2018-08-31T19:00:09.176Z,67.30
2018-08-31T19:02:37.863Z,67.60
2018-08-31T19:05:06.607Z,67.80
2018-08-31T19:07:35.385Z,67.80
2018-08-31T19:10:04.229Z,67.90
2018-08-31T19:12:33.729Z,67.70
2018-08-31T19:15:02.484Z,67.50
2018-08-31T19:17:31.724Z,67.40
2018-08-31T19:20:01.515Z,67.60
2018-08-31T19:22:30.461Z,68.00
2018-08-31T19:24:59.201Z,68.20
2018-08-31T19:27:27.896Z,68.50
2018-08-31T19:29:56.619Z,68.70
2018-08-31T19:32:25.478Z,68.80
2018-08-31T19:34:55.632Z,69.00
2018-08-31T19:37:24.444Z,69.00
2018-08-31T19:39:53.423Z,69.30
2018-08-31T19:42:22.086Z,69.40
2018-08-31T19:44:51.998Z,69.60
2018-08-31T19:47:20.723Z,69.80
2018-08-31T19:49:49.960Z,70.10
2018-08-31T19:52:18.632Z,70.20
2018-08-31T19:54:48.801Z,70.60
2018-08-31T19:57:17.561Z,70.90
2018-08-31T19:59:46.244Z,71.00
2018-08-31T20:02:15.529Z,71.10
2018-08-31T20:04:44.301Z,71.20
2018-08-31T20:07:13.529Z,71.20
2018-08-31T20:09:42.346Z,71.10
2018-08-31T20:12:11.720Z,71.50
2018-08-31T20:14:41.134Z,71.40
2018-08-31T20:17:10.251Z,71.20
2018-08-31T20:19:39.097Z,71.10
2018-08-31T20:22:11.064Z,71.20
2018-08-31T20:24:40.050Z,71.10
2018-08-31T20:27:09.347Z,71.80
2018-08-31T20:29:38.152Z,70.50
2018-08-31T20:32:08.411Z,70.60
2018-08-31T20:34:37.292Z,70.50
2018-08-31T20:37:06.252Z,70.60
2018-08-31T20:39:35.084Z,70.80
2018-08-31T20:42:03.980Z,70.80
2018-08-31T20:44:32.966Z,71.00
2018-08-31T20:47:02.346Z,71.10
2018-08-31T20:49:31.514Z,71.20
2018-08-31T20:52:00.407Z,71.20
2018-08-31T20:54:29.068Z,71.20
2018-08-31T20:56:57.871Z,71.30
2018-08-31T20:59:27.684Z,71.40
2018-08-31T21:01:58.534Z,71.50
2018-08-31T21:04:28.039Z,71.60
2018-08-31T21:06:56.892Z,71.70
2018-08-31T21:09:25.572Z,71.80
2018-08-31T21:11:54.264Z,71.80
2018-08-31T21:14:23.183Z,72.00
2018-08-31T21:16:51.906Z,72.10
2018-08-31T21:19:20.649Z,72.30
2018-08-31T21:21:49.487Z,72.50
2018-08-31T21:24:18.847Z,72.50
2018-08-31T21:26:48.020Z,72.50
2018-08-31T21:29:16.679Z,72.50
2018-08-31T21:31:45.404Z,72.60
2018-08-31T21:34:14.191Z,72.70
2018-08-31T21:36:42.888Z,72.50
2018-08-31T21:39:11.679Z,74.10
2018-08-31T21:41:40.450Z,75.60
2018-08-31T21:44:09.306Z,75.10
2018-08-31T21:46:38.079Z,76.10
2018-08-31T21:49:06.780Z,77.10
2018-08-31T21:51:35.811Z,76.60
2018-08-31T21:54:04.503Z,76.20
2018-08-31T21:56:33.271Z,75.80
2018-08-31T21:59:02.033Z,75.70
2018-08-31T22:01:36.266Z,75.70
2018-08-31T22:04:05.312Z,74.80
2018-08-31T22:06:35.273Z,74.60
2018-08-31T22:09:05.856Z,74.60
2018-08-31T22:11:34.689Z,74.90
2018-08-31T22:14:03.487Z,75.20
2018-08-31T22:16:32.366Z,75.70
2018-08-31T22:19:01.163Z,75.50
2018-08-31T22:21:29.966Z,75.20
2018-08-31T22:23:58.728Z,75.20
2018-08-31T22:26:27.460Z,75.10
2018-08-31T22:28:56.279Z,75.20
2018-08-31T22:31:24.956Z,75.40
2018-08-31T22:33:53.661Z,75.50
2018-08-31T22:36:22.295Z,75.40
2018-08-31T22:38:51.040Z,75.50
2018-08-31T22:41:19.745Z,75.10
2018-08-31T22:43:49.790Z,75.20
2018-08-31T22:46:20.523Z,75.20
2018-08-31T22:48:50.158Z,75.50
2018-08-31T22:51:19.675Z,75.50
2018-08-31T22:53:48.723Z,75.50
2018-08-31T22:56:17.516Z,75.70
2018-08-31T22:58:46.184Z,75.60
2018-08-31T23:01:15.103Z,75.70
2018-08-31T23:03:44.068Z,75.60
2018-08-31T23:06:12.935Z,75.50
2018-08-31T23:08:41.577Z,75.50
2018-08-31T23:11:11.407Z,75.60
2018-08-31T23:13:42.348Z,75.60
2018-08-31T23:16:11.106Z,75.60
2018-08-31T23:18:39.991Z,75.80
2018-08-31T23:21:09.303Z,76.00
2018-08-31T23:23:43.398Z,76.20
2018-08-31T23:26:12.044Z,76.00
2018-08-31T23:28:40.849Z,76.00
2018-08-31T23:31:09.579Z,76.20
2018-08-31T23:33:38.238Z,76.20
2018-08-31T23:36:06.898Z,76.60
2018-08-31T23:38:36.019Z,76.70
2018-08-31T23:41:04.836Z,76.70
2018-08-31T23:43:33.568Z,76.80
2018-08-31T23:46:03.207Z,76.90
2018-08-31T23:48:31.934Z,77.00
2018-08-31T23:51:00.696Z,77.10
2018-08-31T23:53:29.456Z,77.20
2018-08-31T23:55:59.041Z,77.30
2018-08-31T23:58:27.908Z,77.40
